Thunder radar more information blitzortung!


Radar de pluja more information rain snow radar


Visita la nostra xarxa de llocs de meteo:

Template documentation
and downloads

And another site



No particular awareness of the weather is required.    There are no Weather-warnings

Pagina Historial Weather Underground text

Diari Resum Octubre 23, 2017 Unitats:  Imperial    Mètric   Tant
« Previous Dia
SegĂźent Dia »
Diari Setmana Mensual Anual Personalitzada
  Maxima: Minima: Media:
Temperatura: TemperatureC °F 9.8 °F 16.2 °F
Punt de rosada: DewpointC °F 5.0 °F 7.5 °F
Humitat: Humidity % 44 % 57 %
Wind Speed: WindSpeedKMH mph 0.0 mph 3.4 mph
RĂ fegues de vent: WindSpeedGustKMH mph - -
Vent:- - South
Pression baro: PressurehPa in 1021.9 in -
Precipitacions: 0.0 in    
Historical Graphs
 
 
Dades de taula per Octubre 23, 2017
Temps Temperatura Punt de rosada Pression baro Vent Wind Speed RĂ fegues de vent Humitat Rainfall Rate (Hourly)
TemperatureC °F DewpointC °F PressurehPa in Calm     Humidity % HourlyPrecipMM in
00:01 13.1 °F 5.5 °F 1024.9 in WSW 3.7 mph   60 % 0.0 in
00:06 13.2 °F 5.3 °F 1024.9 in West 3.7 mph 3.7 mph 59 % 0.0 in
01:55 10.8 °F 5.3 °F 1026.0 in Calm   1.6 mph 69 % 0.0 in
02:05 10.6 °F 5.2 °F 1026.0 in Calm   1.6 mph 69 % 0.0 in
02:15 10.4 °F 5.2 °F 1026.0 in West 1.6 mph 1.6 mph 70 % 0.0 in
02:25 10.3 °F 5.1 °F 1026.0 in Calm     70 % 0.0 in
02:35 10.2 °F 5.2 °F 1026.0 in Calm     71 % 0.0 in
02:45 10.1 °F 5.1 °F 1026.0 in Calm   3.2 mph 71 % 0.0 in
02:55 10.0 °F 5.0 °F 1026.0 in Calm   1.6 mph 71 % 0.0 in
03:05 9.8 °F 5.0 °F 1026.0 in NW 1.6 mph 3.2 mph 72 % 0.0 in
03:15 9.8 °F 5.0 °F 1026.0 in Calm   1.6 mph 72 % 0.0 in
03:25 9.8 °F 5.0 °F 1026.0 in Calm     72 % 0.0 in
03:35 9.8 °F 5.2 °F 1026.0 in WNW 1.6 mph 1.6 mph 73 % 0.0 in
03:45 9.9 °F 5.3 °F 1026.0 in West 1.6 mph 1.6 mph 73 % 0.0 in
03:55 10.8 °F 6.3 °F 1026.0 in Calm   1.6 mph 74 % 0.0 in
04:05 11.4 °F 6.6 °F 1024.9 in North 3.2 mph 4.8 mph 72 % 0.0 in
04:15 11.8 °F 6.5 °F 1026.0 in NNW 1.6 mph 3.2 mph 70 % 0.0 in
04:25 12.2 °F 6.7 °F 1026.0 in North 1.6 mph 3.2 mph 69 % 0.0 in
04:35 12.7 °F 7.2 °F 1026.0 in NNE 1.6 mph 1.6 mph 69 % 0.0 in
04:45 12.9 °F 7.1 °F 1026.0 in Calm   3.2 mph 68 % 0.0 in
04:55 13.3 °F 7.5 °F 1026.0 in North 1.6 mph 3.2 mph 68 % 0.0 in
05:05 13.0 °F 7.0 °F 1026.0 in NE 3.2 mph 4.8 mph 67 % 0.0 in
05:15 13.2 °F 7.2 °F 1027.0 in NE 3.2 mph 4.8 mph 67 % 0.0 in
10:24 13.4 °F 7.2 °F 1027.0 in North 4.7 mph 4.7 mph 66 % 0.0 in
10:27 13.5 °F 7.3 °F 1027.0 in ENE 5.6 mph 5.6 mph 66 % 0.0 in
10:32 13.9 °F 7.7 °F 1027.0 in WNW 5.6 mph 5.6 mph 66 % 0.0 in
10:37 13.8 °F 7.6 °F 1027.0 in NE 7.4 mph 7.4 mph 66 % 0.0 in
10:42 13.7 °F 7.2 °F 1026.0 in ENE 7.4 mph 7.4 mph 65 % 0.0 in
10:47 14.0 °F 7.5 °F 1026.0 in NNE 7.4 mph 7.4 mph 65 % 0.0 in
10:52 13.8 °F 7.3 °F 1026.0 in NNE 7.4 mph 7.4 mph 65 % 0.0 in
10:57 13.9 °F 7.2 °F 1026.0 in NE 7.4 mph 7.4 mph 64 % 0.0 in
11:02 14.4 °F 7.9 °F 1026.0 in ESE 5.6 mph 5.6 mph 65 % 0.0 in
11:07 15.0 °F 8.4 °F 1026.0 in NNE 1.9 mph   65 % 0.0 in
11:12 14.8 °F 8.1 °F 1026.0 in ENE 5.6 mph 5.6 mph 64 % 0.0 in
11:17 14.8 °F 8.1 °F 1026.0 in NNW 7.4 mph 7.4 mph 64 % 0.0 in
11:22 15.1 °F 8.3 °F 1026.0 in NE 5.6 mph 5.6 mph 64 % 0.0 in
11:27 15.3 °F 8.3 °F 1026.0 in NE 3.7 mph 3.7 mph 63 % 0.0 in
11:32 15.3 °F 8.3 °F 1026.0 in NNE 7.4 mph 7.4 mph 63 % 0.0 in
11:37 15.3 °F 8.3 °F 1026.0 in ENE 3.9 mph 3.9 mph 63 % 0.0 in
11:42 15.3 °F 8.1 °F 1026.0 in East 4.7 mph 4.7 mph 62 % 0.0 in
11:47 15.5 °F 8.2 °F 1026.0 in ENE 9.3 mph 9.3 mph 62 % 0.0 in
11:52 15.7 °F 8.4 °F 1026.0 in NNE 5.8 mph 5.8 mph 62 % 0.0 in
11:57 15.8 °F 8.6 °F 1026.0 in NNE 4.2 mph 4.2 mph 62 % 0.0 in
12:02 16.2 °F 8.9 °F 1026.0 in East 1.9 mph   62 % 0.0 in
12:07 16.7 °F 9.4 °F 1026.0 in ESE 3.7 mph 3.7 mph 62 % 0.0 in
12:12 17.1 °F 9.3 °F 1026.0 in East 3.7 mph 3.7 mph 60 % 0.0 in
12:17 17.2 °F 9.1 °F 1026.0 in ESE 5.6 mph 5.6 mph 59 % 0.0 in
12:22 17.4 °F 9.1 °F 1026.0 in ESE 3.7 mph 3.9 mph 58 % 0.0 in
12:27 17.5 °F 9.4 °F 1026.0 in WSW 3.7 mph 3.7 mph 59 % 0.0 in
12:32 17.6 °F 9.2 °F 1026.0 in East 5.6 mph 5.6 mph 58 % 0.0 in
12:37 17.3 °F 8.9 °F 1026.0 in ESE 5.6 mph 5.6 mph 58 % 0.0 in
12:42 17.8 °F 9.7 °F 1026.0 in ESE 5.3 mph 5.3 mph 59 % 0.0 in
12:47 17.6 °F 9.2 °F 1026.0 in NNE 5.6 mph 5.6 mph 58 % 0.0 in
12:52 17.6 °F 9.0 °F 1026.0 in NNE 5.6 mph 5.6 mph 57 % 0.0 in
12:53 17.6 °F 9.0 °F 1026.0 in ENE 3.7 mph 3.7 mph 57 % 0.0 in
12:58 17.7 °F 9.1 °F 1026.0 in East 3.9 mph 4.2 mph 57 % 0.0 in
13:03 18.1 °F 9.2 °F 1026.0 in NNE 3.7 mph 3.7 mph 56 % 0.0 in
13:08 18.2 °F 9.6 °F 1026.0 in NE 3.9 mph 3.9 mph 57 % 0.0 in
13:13 18.6 °F 9.9 °F 1026.0 in NNE 4.7 mph 4.7 mph 57 % 0.0 in
13:18 19.0 °F 10.0 °F 1026.0 in NNE 5.6 mph 5.6 mph 56 % 0.0 in
13:23 19.4 °F 10.1 °F 1026.0 in NNW 9.3 mph 9.3 mph 55 % 0.0 in
13:28 19.6 °F 10.3 °F 1024.9 in SSE 3.7 mph 3.7 mph 55 % 0.0 in
13:33 20.0 °F 10.7 °F 1024.9 in SSW 3.7 mph 3.7 mph 55 % 0.0 in
13:38 20.5 °F 10.9 °F 1024.9 in SW 7.4 mph 7.4 mph 54 % 0.0 in
13:43 20.6 °F 10.7 °F 1023.9 in SW 9.3 mph 9.3 mph 53 % 0.0 in
13:48 20.3 °F 10.1 °F 1023.9 in SSE 9.3 mph 9.3 mph 52 % 0.0 in
13:53 20.4 °F 10.5 °F 1023.9 in West 7.4 mph 7.4 mph 53 % 0.0 in
13:58 20.1 °F 9.9 °F 1023.9 in North 5.6 mph 5.6 mph 52 % 0.0 in
14:03 20.3 °F 10.1 °F 1023.9 in NNW 5.6 mph 5.6 mph 52 % 0.0 in
14:08 20.6 °F 10.4 °F 1023.9 in West 5.8 mph 5.8 mph 52 % 0.0 in
14:13 20.7 °F 10.5 °F 1023.9 in SSW 5.0 mph 5.0 mph 52 % 0.0 in
14:18 20.8 °F 10.6 °F 1023.9 in West 6.1 mph 6.1 mph 52 % 0.0 in
14:23 20.5 °F 10.3 °F 1023.9 in WNW 5.6 mph 5.6 mph 52 % 0.0 in
14:28 20.4 °F 9.9 °F 1023.9 in SW 5.6 mph 5.6 mph 51 % 0.0 in
14:33 20.6 °F 10.1 °F 1023.9 in SSW 7.4 mph 7.4 mph 51 % 0.0 in
14:38 20.7 °F 10.2 °F 1023.9 in SW 7.4 mph 7.4 mph 51 % 0.0 in
14:43 20.7 °F 10.2 °F 1023.9 in SW 7.4 mph 7.4 mph 51 % 0.0 in
14:48 20.7 °F 10.2 °F 1023.9 in West 7.4 mph 7.4 mph 51 % 0.0 in
14:53 20.8 °F 10.3 °F 1023.9 in SW 7.4 mph 7.4 mph 51 % 0.0 in
14:58 20.8 °F 10.0 °F 1023.9 in West 7.4 mph 7.4 mph 50 % 0.0 in
15:03 21.1 °F 9.9 °F 1023.9 in SW 9.3 mph 9.3 mph 49 % 0.0 in
15:08 21.0 °F 9.9 °F 1023.9 in WSW 9.3 mph 9.3 mph 49 % 0.0 in
15:13 21.3 °F 10.2 °F 1022.9 in NW 5.6 mph 5.6 mph 49 % 0.0 in
15:18 21.5 °F 10.3 °F 1022.9 in West 13.0 mph 13.0 mph 49 % 0.0 in
15:23 21.6 °F 10.1 °F 1022.9 in WSW 5.6 mph 5.6 mph 48 % 0.0 in
15:28 21.8 °F 10.3 °F 1022.9 in West 5.6 mph 5.6 mph 48 % 0.0 in
15:33 21.7 °F 10.2 °F 1022.9 in SSW 8.7 mph 8.7 mph 48 % 0.0 in
15:38 21.9 °F 10.4 °F 1022.9 in SSW 7.4 mph 7.4 mph 48 % 0.0 in
15:43 22.1 °F 10.3 °F 1022.9 in SSE 3.7 mph 3.7 mph 47 % 0.0 in
15:48 21.6 °F 9.8 °F 1022.9 in ESE 3.7 mph 3.7 mph 47 % 0.0 in
15:53 21.9 °F 10.1 °F 1022.9 in South 9.3 mph 9.3 mph 47 % 0.0 in
15:58 22.1 °F 10.3 °F 1022.9 in NNW 2.3 mph 2.3 mph 47 % 0.0 in
16:03 22.1 °F 9.9 °F 1022.9 in WSW 5.6 mph 5.6 mph 46 % 0.0 in
16:08 21.9 °F 10.1 °F 1022.9 in SW 3.7 mph 3.7 mph 47 % 0.0 in
16:13 22.0 °F 9.8 °F 1022.9 in SW 3.7 mph 4.2 mph 46 % 0.0 in
16:18 22.3 °F 10.4 °F 1022.9 in WSW 3.7 mph 3.7 mph 47 % 0.0 in
16:23 22.4 °F 10.2 °F 1022.9 in SW 3.7 mph 3.7 mph 46 % 0.0 in
16:28 22.4 °F 10.2 °F 1022.9 in West 3.7 mph 3.7 mph 46 % 0.0 in
16:33 22.3 °F 10.1 °F 1022.9 in NNW 5.6 mph 5.6 mph 46 % 0.0 in
16:38 22.1 °F 9.9 °F 1022.9 in NW 7.4 mph 7.4 mph 46 % 0.0 in
16:43 21.9 °F 9.8 °F 1022.9 in West 5.0 mph 5.0 mph 46 % 0.0 in
16:48 22.1 °F 9.9 °F 1022.9 in WNW 5.0 mph 5.0 mph 46 % 0.0 in
16:53 22.1 °F 9.9 °F 1022.9 in NNW 5.6 mph 5.6 mph 46 % 0.0 in
16:58 21.9 °F 9.8 °F 1021.9 in SW 5.8 mph 5.8 mph 46 % 0.0 in
17:03 21.9 °F 9.8 °F 1021.9 in West 3.2 mph 3.2 mph 46 % 0.0 in
17:08 22.0 °F 9.8 °F 1021.9 in WSW 2.3 mph 2.3 mph 46 % 0.0 in
17:13 22.0 °F 9.8 °F 1021.9 in WSW 5.6 mph 5.6 mph 46 % 0.0 in
17:18 21.8 °F 9.7 °F 1021.9 in NW 5.6 mph 5.6 mph 46 % 0.0 in
17:23 21.9 °F 9.8 °F 1021.9 in NNW 3.7 mph 3.7 mph 46 % 0.0 in
17:28 22.0 °F 9.8 °F 1022.9 in West 5.6 mph 5.6 mph 46 % 0.0 in
17:33 22.0 °F 9.8 °F 1022.9 in West 3.5 mph 3.5 mph 46 % 0.0 in
17:39 21.9 °F 9.8 °F 1022.9 in WSW 3.7 mph 3.7 mph 46 % 0.0 in
17:44 21.8 °F 9.7 °F 1022.9 in West 3.7 mph 3.7 mph 46 % 0.0 in
17:54 21.5 °F 9.1 °F 1022.9 in NW 3.5 mph   45 % 0.0 in
17:59 21.2 °F 8.8 °F 1022.9 in NE 5.6 mph 5.6 mph 45 % 0.0 in
18:04 21.0 °F 8.6 °F 1022.9 in West 3.9 mph 3.9 mph 45 % 0.0 in
18:09 20.9 °F 8.5 °F 1022.9 in WSW 4.7 mph 4.7 mph 45 % 0.0 in
18:14 20.7 °F 8.3 °F 1022.9 in NW 3.7 mph 3.7 mph 45 % 0.0 in
18:19 20.6 °F 8.2 °F 1022.9 in WNW 7.4 mph 7.4 mph 45 % 0.0 in
18:24 20.4 °F 8.1 °F 1022.9 in West 3.7 mph 3.7 mph 45 % 0.0 in
18:29 20.2 °F 7.9 °F 1022.9 in NW 3.7 mph 3.7 mph 45 % 0.0 in
18:34 20.0 °F 7.4 °F 1022.9 in WNW 3.7 mph 3.7 mph 44 % 0.0 in
18:39 19.8 °F 7.2 °F 1022.9 in West 3.7 mph 3.7 mph 44 % 0.0 in
18:44 19.6 °F 7.0 °F 1022.9 in WNW 3.7 mph 3.7 mph 44 % 0.0 in
18:49 19.2 °F 6.7 °F 1022.9 in WNW 3.7 mph 3.7 mph 44 % 0.0 in
18:54 18.9 °F 7.0 °F 1022.9 in West 4.2 mph 4.2 mph 46 % 0.0 in
18:59 18.7 °F 6.8 °F 1022.9 in WNW 3.7 mph 3.7 mph 46 % 0.0 in
19:04 18.4 °F 6.6 °F 1022.9 in NE 3.7 mph 3.7 mph 46 % 0.0 in
19:09 18.2 °F 6.4 °F 1023.9 in NE 3.7 mph 3.7 mph 46 % 0.0 in
19:14 17.9 °F 6.1 °F 1023.9 in West 3.7 mph 3.7 mph 46 % 0.0 in
19:19 17.6 °F 6.2 °F 1023.9 in NE 3.7 mph 3.7 mph 47 % 0.0 in
19:24 17.4 °F 5.9 °F 1023.9 in ENE 2.3 mph 2.3 mph 47 % 0.0 in
19:25 13.0 °F 6.1 °F 1023.9 in Calm   1.6 mph 63 % 0.0 in
19:29 17.2 °F 5.8 °F 1023.9 in NNE 3.7 mph 3.7 mph 47 % 0.0 in
19:34 17.1 °F 6.0 °F 1023.9 in West 1.9 mph   48 % 0.0 in
19:35 12.9 °F 6.0 °F 1023.9 in WNW 1.6 mph 3.2 mph 63 % 0.0 in
19:39 16.9 °F 6.1 °F 1023.9 in NNE 3.7 mph 3.7 mph 49 % 0.0 in
19:44 16.7 °F 5.9 °F 1023.9 in North 3.7 mph 3.7 mph 49 % 0.0 in
19:45 12.8 °F 6.2 °F 1023.9 in Calm   3.2 mph 64 % 0.0 in
19:49 16.6 °F 6.1 °F 1023.9 in WNW 3.7 mph 3.7 mph 50 % 0.0 in
19:54 16.5 °F 6.1 °F 1023.9 in NW 3.7 mph 3.7 mph 50 % 0.0 in
19:55 12.6 °F 5.9 °F 1023.9 in Calm     64 % 0.0 in
19:59 16.4 °F 5.9 °F 1023.9 in SSW 2.3 mph 2.3 mph 50 % 0.0 in
20:04 16.2 °F 6.1 °F 1023.9 in WSW 1.9 mph   51 % 0.0 in
20:05 12.4 °F 6.0 °F 1023.9 in Calm     65 % 0.0 in
20:09 16.0 °F 5.8 °F 1023.9 in SW 4.2 mph 4.2 mph 51 % 0.0 in
20:14 15.8 °F 5.7 °F 1023.9 in SW 4.2 mph 4.2 mph 51 % 0.0 in
20:15 12.1 °F 5.7 °F 1023.9 in WNW 1.6 mph 3.2 mph 65 % 0.0 in
20:19 15.7 °F 5.6 °F 1023.9 in SW 3.7 mph 3.7 mph 51 % 0.0 in
20:24 15.6 °F 5.8 °F 1023.9 in Calm     52 % 0.0 in
20:25 12.1 °F 5.9 °F 1023.9 in Calm   3.2 mph 66 % 0.0 in
20:29 15.6 °F 5.8 °F 1023.9 in SW 2.3 mph 2.3 mph 52 % 0.0 in
20:34 15.7 °F 5.9 °F 1023.9 in WSW 1.9 mph 1.9 mph 52 % 0.0 in
20:35 11.8 °F 5.4 °F 1023.9 in WSW 3.2 mph 3.2 mph 65 % 0.0 in
20:39 15.6 °F 5.8 °F 1024.9 in WSW 3.7 mph 3.7 mph 52 % 0.0 in
20:44 15.4 °F 5.9 °F 1024.9 in WSW 3.9 mph 3.9 mph 53 % 0.0 in
20:45 11.6 °F 5.4 °F 1024.9 in Calm   3.2 mph 66 % 0.0 in
20:49 15.3 °F 5.8 °F 1024.9 in SW 3.7 mph 3.7 mph 53 % 0.0 in
20:54 15.2 °F 5.7 °F 1023.9 in WSW 2.6 mph   53 % 0.0 in
20:55 11.7 °F 5.8 °F 1024.9 in WSW 1.6 mph 3.2 mph 67 % 0.0 in
20:59 15.2 °F 5.9 °F 1023.9 in WSW 1.9 mph 1.9 mph 54 % 0.0 in
21:04 15.1 °F 5.8 °F 1023.9 in Calm     54 % 0.0 in
21:05 11.6 °F 5.7 °F 1023.9 in Calm   3.2 mph 67 % 0.0 in
21:09 15.1 °F 5.8 °F 1023.9 in Calm     54 % 0.0 in
21:14 15.0 °F 5.8 °F 1023.9 in WSW 1.9 mph   54 % 0.0 in
21:15 11.6 °F 5.9 °F 1023.9 in Calm   3.2 mph 68 % 0.0 in
21:19 14.8 °F 5.8 °F 1023.9 in Calm     55 % 0.0 in
21:24 14.8 °F 5.8 °F 1023.9 in Calm     55 % 0.0 in
21:25 11.6 °F 6.1 °F 1023.9 in Calm   1.6 mph 69 % 0.0 in
21:29 14.8 °F 6.1 °F 1023.9 in North 1.9 mph 2.3 mph 56 % 0.0 in
21:34 14.8 °F 6.1 °F 1023.9 in Calm     56 % 0.0 in
21:35 11.5 °F 6.0 °F 1023.9 in NE 1.6 mph 3.2 mph 69 % 0.0 in
21:39 14.8 °F 6.1 °F 1023.9 in Calm     56 % 0.0 in
21:44 14.6 °F 5.9 °F 1023.9 in Calm     56 % 0.0 in
21:45 11.4 °F 5.9 °F 1023.9 in Calm   1.6 mph 69 % 0.0 in
21:49 14.6 °F 6.2 °F 1023.9 in Calm     57 % 0.0 in
21:54 14.5 °F 6.1 °F 1023.9 in WSW 3.7 mph 3.7 mph 57 % 0.0 in
21:55 11.1 °F 5.8 °F 1023.9 in Calm   1.6 mph 70 % 0.0 in
21:59 14.1 °F 5.7 °F 1023.9 in WSW 3.2 mph 3.2 mph 57 % 0.0 in
22:04 14.0 °F 5.6 °F 1023.9 in SW 3.7 mph 3.9 mph 57 % 0.0 in
22:05 10.9 °F 5.4 °F 1023.9 in Calm   3.2 mph 69 % 0.0 in
22:09 14.0 °F 5.8 °F 1023.9 in SW 2.3 mph 2.3 mph 58 % 0.0 in
22:14 14.0 °F 5.8 °F 1023.9 in SW 1.9 mph 1.9 mph 58 % 0.0 in
22:15 11.0 °F 5.7 °F 1023.9 in Calm     70 % 0.0 in
22:19 14.1 °F 5.9 °F 1023.9 in Calm     58 % 0.0 in
22:24 14.2 °F 6.1 °F 1022.9 in NW 3.7 mph 3.7 mph 58 % 0.0 in
22:25 11.1 °F 5.8 °F 1023.9 in Calm   3.2 mph 70 % 0.0 in
22:29 14.2 °F 6.1 °F 1022.9 in Calm     58 % 0.0 in
22:34 14.3 °F 6.2 °F 1022.9 in Calm     58 % 0.0 in
22:35 11.0 °F 5.7 °F 1023.9 in WSW 1.6 mph 4.8 mph 70 % 0.0 in
22:39 14.4 °F 6.5 °F 1023.9 in Calm     59 % 0.0 in
22:44 14.4 °F 6.5 °F 1023.9 in Calm     59 % 0.0 in
22:45 10.9 °F 5.8 °F 1023.9 in Calm   4.8 mph 71 % 0.0 in
22:49 14.4 °F 6.7 °F 1023.9 in North 3.7 mph 3.7 mph 60 % 0.0 in
22:54 14.2 °F 6.6 °F 1023.9 in North 1.9 mph   60 % 0.0 in
22:55 10.9 °F 6.1 °F 1023.9 in Calm   1.6 mph 72 % 0.0 in
22:59 14.2 °F 6.6 °F 1023.9 in Calm     60 % 0.0 in
23:04 14.1 °F 6.4 °F 1023.9 in Calm     60 % 0.0 in
23:05 10.9 °F 5.8 °F 1023.9 in Calm   1.6 mph 71 % 0.0 in
23:09 14.0 °F 6.3 °F 1023.9 in Calm     60 % 0.0 in
23:14 14.0 °F 6.3 °F 1023.9 in Calm     60 % 0.0 in
23:15 10.8 °F 5.9 °F 1023.9 in NE 1.6 mph 3.2 mph 72 % 0.0 in
23:19 13.9 °F 6.5 °F 1023.9 in Calm     61 % 0.0 in
23:24 13.6 °F 6.2 °F 1023.9 in Calm     61 % 0.0 in
23:25 10.8 °F 6.2 °F 1023.9 in NNE 1.6 mph 1.6 mph 73 % 0.0 in
23:29 13.5 °F 6.1 °F 1023.9 in WNW 1.9 mph   61 % 0.0 in
23:34 13.3 °F 5.9 °F 1023.9 in WSW 1.9 mph 1.9 mph 61 % 0.0 in
23:35 10.7 °F 6.1 °F 1023.9 in NNE 1.6 mph 3.2 mph 73 % 0.0 in
23:39 13.2 °F 5.8 °F 1023.9 in Calm     61 % 0.0 in
23:44 13.1 °F 5.7 °F 1023.9 in WSW 3.7 mph 3.7 mph 61 % 0.0 in
23:45 10.3 °F 5.4 °F 1023.9 in West 3.2 mph 4.8 mph 72 % 0.0 in
23:49 13.0 °F 5.9 °F 1023.9 in North 2.3 mph   62 % 0.0 in
23:54 12.9 °F 5.8 °F 1023.9 in WSW 2.3 mph 2.3 mph 62 % 0.0 in
23:55 10.2 °F 5.6 °F 1023.9 in WSW 1.6 mph 3.2 mph 73 % 0.0 in
23:59 13.0 °F 5.9 °F 1023.9 in WSW 3.7 mph 3.7 mph 62 % 0.0 in
Meteo Sesrovires
Elogis d' Weather Underground - 3.75 mb

Guio original per  Jim McMurry - jmcmurry@mwt.net Adaptat per a la plantilla per  Wim van der Kuil - Leuven-Template.eu

Trobareu la nostra informacio del temps tambe a:

Weather Underground

AWEKAS